sensor_id;sensor_type;location;lat;lon;timestamp;pressure;altitude;pressure_sealevel;temperature;humidity
56689;BME280;42565;53.342;-1.534;2023-04-21T00:00:05;99447.58;;;8.02;72.74
56689;BME280;42565;53.342;-1.534;2023-04-21T00:02:32;99443.09;;;8.63;71.01
56689;BME280;42565;53.342;-1.534;2023-04-21T00:04:59;99438.66;;;8.60;71.61
56689;BME280;42565;53.342;-1.534;2023-04-21T00:07:26;99433.93;;;9.03;70.91
56689;BME280;42565;53.342;-1.534;2023-04-21T00:09:53;99433.90;;;9.26;69.02
56689;BME280;42565;53.342;-1.534;2023-04-21T00:12:21;99430.63;;;7.89;72.30
56689;BME280;42565;53.342;-1.534;2023-04-21T00:14:48;99424.91;;;9.01;70.86
56689;BME280;42565;53.342;-1.534;2023-04-21T00:17:15;99415.23;;;9.54;71.21
56689;BME280;42565;53.342;-1.534;2023-04-21T00:19:42;99409.91;;;8.63;71.55
56689;BME280;42565;53.342;-1.534;2023-04-21T00:22:09;99413.04;;;8.97;71.97
56689;BME280;42565;53.342;-1.534;2023-04-21T00:24:37;99411.17;;;8.37;72.56
56689;BME280;42565;53.342;-1.534;2023-04-21T00:27:03;99413.10;;;9.25;71.08
56689;BME280;42565;53.342;-1.534;2023-04-21T00:29:31;99400.58;;;9.85;68.45
56689;BME280;42565;53.342;-1.534;2023-04-21T00:31:57;99400.82;;;9.52;69.82
56689;BME280;42565;53.342;-1.534;2023-04-21T00:34:25;99399.60;;;9.17;69.51
56689;BME280;42565;53.342;-1.534;2023-04-21T00:36:52;99399.16;;;9.69;68.82
56689;BME280;42565;53.342;-1.534;2023-04-21T00:39:20;99399.52;;;9.51;68.04
56689;BME280;42565;53.342;-1.534;2023-04-21T00:41:47;99398.22;;;9.99;68.69
56689;BME280;42565;53.342;-1.534;2023-04-21T00:44:15;99397.65;;;9.70;69.27
56689;BME280;42565;53.342;-1.534;2023-04-21T00:46:42;99399.33;;;9.70;69.08
56689;BME280;42565;53.342;-1.534;2023-04-21T00:49:09;99398.59;;;9.56;68.98
56689;BME280;42565;53.342;-1.534;2023-04-21T00:51:36;99396.91;;;9.41;70.19
56689;BME280;42565;53.342;-1.534;2023-04-21T00:54:05;99394.92;;;9.00;70.13
56689;BME280;42565;53.342;-1.534;2023-04-21T00:56:34;99400.90;;;9.21;69.66
56689;BME280;42565;53.342;-1.534;2023-04-21T00:59:02;99392.96;;;9.54;68.58
56689;BME280;42565;53.342;-1.534;2023-04-21T01:01:30;99390.55;;;9.59;69.55
56689;BME280;42565;53.342;-1.534;2023-04-21T01:03:58;99401.01;;;8.72;73.37
56689;BME280;42565;53.342;-1.534;2023-04-21T01:06:27;99399.81;;;9.28;71.19
56689;BME280;42565;53.342;-1.534;2023-04-21T01:08:55;99401.03;;;9.19;70.55
56689;BME280;42565;53.342;-1.534;2023-04-21T01:11:22;99397.95;;;8.01;73.64
56689;BME280;42565;53.342;-1.534;2023-04-21T01:13:51;99397.94;;;8.34;72.44
56689;BME280;42565;53.342;-1.534;2023-04-21T01:16:20;99407.25;;;8.77;73.43
56689;BME280;42565;53.342;-1.534;2023-04-21T01:18:48;99404.01;;;8.82;72.68
56689;BME280;42565;53.342;-1.534;2023-04-21T01:21:16;99395.08;;;8.92;72.61
56689;BME280;42565;53.342;-1.534;2023-04-21T01:23:44;99402.99;;;8.83;72.82
56689;BME280;42565;53.342;-1.534;2023-04-21T01:26:11;99401.47;;;8.60;73.49
56689;BME280;42565;53.342;-1.534;2023-04-21T01:28:39;99394.92;;;8.67;73.36
56689;BME280;42565;53.342;-1.534;2023-04-21T01:31:06;99393.52;;;8.77;73.34
56689;BME280;42565;53.342;-1.534;2023-04-21T01:33:34;99390.00;;;8.80;73.31
56689;BME280;42565;53.342;-1.534;2023-04-21T01:36:00;99387.23;;;9.19;72.85
56689;BME280;42565;53.342;-1.534;2023-04-21T01:38:28;99379.34;;;8.55;73.23
56689;BME280;42565;53.342;-1.534;2023-04-21T01:40:55;99377.09;;;9.17;71.72
56689;BME280;42565;53.342;-1.534;2023-04-21T01:43:24;99378.70;;;9.10;71.31
56689;BME280;42565;53.342;-1.534;2023-04-21T01:45:52;99370.79;;;9.13;71.69
56689;BME280;42565;53.342;-1.534;2023-04-21T01:48:20;99375.57;;;9.63;70.47
56689;BME280;42565;53.342;-1.534;2023-04-21T01:50:47;99376.70;;;9.71;70.49
56689;BME280;42565;53.342;-1.534;2023-04-21T01:53:14;99375.76;;;9.90;70.39
56689;BME280;42565;53.342;-1.534;2023-04-21T01:55:41;99366.03;;;9.43;69.85
56689;BME280;42565;53.342;-1.534;2023-04-21T01:58:07;99368.31;;;9.79;69.44
56689;BME280;42565;53.342;-1.534;2023-04-21T02:00:34;99366.63;;;9.70;68.92
56689;BME280;42565;53.342;-1.534;2023-04-21T02:03:01;99355.15;;;9.90;68.93
56689;BME280;42565;53.342;-1.534;2023-04-21T02:05:28;99349.25;;;9.31;69.59
56689;BME280;42565;53.342;-1.534;2023-04-21T02:07:55;99341.30;;;9.86;69.66
56689;BME280;42565;53.342;-1.534;2023-04-21T02:10:23;99339.08;;;9.40;69.07
56689;BME280;42565;53.342;-1.534;2023-04-21T02:12:49;99326.12;;;10.19;67.67
56689;BME280;42565;53.342;-1.534;2023-04-21T02:15:17;99326.00;;;10.40;67.23
56689;BME280;42565;53.342;-1.534;2023-04-21T02:17:44;99319.61;;;10.18;67.45
56689;BME280;42565;53.342;-1.534;2023-04-21T02:20:11;99312.10;;;10.16;68.04
56689;BME280;42565;53.342;-1.534;2023-04-21T02:22:38;99307.37;;;10.38;68.46
56689;BME280;42565;53.342;-1.534;2023-04-21T02:25:06;99304.14;;;9.89;68.68
56689;BME280;42565;53.342;-1.534;2023-04-21T02:27:33;99301.44;;;10.24;67.89
56689;BME280;42565;53.342;-1.534;2023-04-21T02:30:01;99298.91;;;9.91;68.16
56689;BME280;42565;53.342;-1.534;2023-04-21T02:32:28;99296.04;;;9.89;69.33
56689;BME280;42565;53.342;-1.534;2023-04-21T02:34:55;99295.48;;;9.02;71.91
56689;BME280;42565;53.342;-1.534;2023-04-21T02:37:22;99292.27;;;8.50;71.51
56689;BME280;42565;53.342;-1.534;2023-04-21T02:39:49;99285.26;;;9.56;71.13
56689;BME280;42565;53.342;-1.534;2023-04-21T02:42:17;99275.97;;;9.49;70.55
56689;BME280;42565;53.342;-1.534;2023-04-21T02:44:44;99270.53;;;8.73;73.57
56689;BME280;42565;53.342;-1.534;2023-04-21T02:47:11;99263.09;;;8.75;73.67
56689;BME280;42565;53.342;-1.534;2023-04-21T02:49:41;99260.92;;;9.29;72.24
56689;BME280;42565;53.342;-1.534;2023-04-21T02:52:08;99268.68;;;9.41;71.15
56689;BME280;42565;53.342;-1.534;2023-04-21T02:54:36;99265.47;;;9.34;73.25
56689;BME280;42565;53.342;-1.534;2023-04-21T02:57:02;99266.30;;;9.32;72.28
56689;BME280;42565;53.342;-1.534;2023-04-21T02:59:29;99267.95;;;9.44;72.70
56689;BME280;42565;53.342;-1.534;2023-04-21T03:01:56;99267.15;;;9.31;72.39
56689;BME280;42565;53.342;-1.534;2023-04-21T03:04:23;99257.39;;;8.60;73.43
56689;BME280;42565;53.342;-1.534;2023-04-21T03:06:50;99259.26;;;8.60;74.22
56689;BME280;42565;53.342;-1.534;2023-04-21T03:09:17;99255.95;;;9.36;72.14
56689;BME280;42565;53.342;-1.534;2023-04-21T03:11:45;99248.36;;;8.95;73.71
56689;BME280;42565;53.342;-1.534;2023-04-21T03:14:12;99245.19;;;9.17;72.76
56689;BME280;42565;53.342;-1.534;2023-04-21T03:16:39;99243.46;;;8.96;73.77
56689;BME280;42565;53.342;-1.534;2023-04-21T03:19:06;99239.14;;;9.06;73.08
56689;BME280;42565;53.342;-1.534;2023-04-21T03:21:36;99232.08;;;9.03;73.65
56689;BME280;42565;53.342;-1.534;2023-04-21T03:24:04;99227.86;;;9.02;73.87
56689;BME280;42565;53.342;-1.534;2023-04-21T03:26:31;99229.23;;;9.26;72.68
56689;BME280;42565;53.342;-1.534;2023-04-21T03:28:58;99223.20;;;9.31;72.34
56689;BME280;42565;53.342;-1.534;2023-04-21T03:31:25;99227.27;;;8.58;73.79
56689;BME280;42565;53.342;-1.534;2023-04-21T03:33:52;99219.78;;;8.51;74.71
56689;BME280;42565;53.342;-1.534;2023-04-21T03:36:20;99218.56;;;8.86;74.62
56689;BME280;42565;53.342;-1.534;2023-04-21T03:38:47;99217.51;;;8.32;76.57
56689;BME280;42565;53.342;-1.534;2023-04-21T03:41:14;99211.76;;;8.24;76.67
56689;BME280;42565;53.342;-1.534;2023-04-21T03:43:41;99201.52;;;8.36;75.98
56689;BME280;42565;53.342;-1.534;2023-04-21T03:46:16;99194.77;;;8.73;75.73
56689;BME280;42565;53.342;-1.534;2023-04-21T03:48:43;99190.96;;;8.17;76.77
56689;BME280;42565;53.342;-1.534;2023-04-21T03:51:10;99186.72;;;8.68;75.80
56689;BME280;42565;53.342;-1.534;2023-04-21T03:53:37;99179.54;;;8.76;74.89
56689;BME280;42565;53.342;-1.534;2023-04-21T03:56:05;99181.86;;;8.59;76.45
56689;BME280;42565;53.342;-1.534;2023-04-21T03:58:32;99165.79;;;8.98;74.48
56689;BME280;42565;53.342;-1.534;2023-04-21T04:01:00;99140.20;;;8.83;76.42
56689;BME280;42565;53.342;-1.534;2023-04-21T04:03:27;99143.80;;;8.77;75.50
56689;BME280;42565;53.342;-1.534;2023-04-21T04:05:54;99138.77;;;8.86;75.16
56689;BME280;42565;53.342;-1.534;2023-04-21T04:08:22;99137.11;;;8.82;73.62
56689;BME280;42565;53.342;-1.534;2023-04-21T04:10:49;99131.28;;;9.11;75.37
56689;BME280;42565;53.342;-1.534;2023-04-21T04:13:16;99133.22;;;8.67;76.77
56689;BME280;42565;53.342;-1.534;2023-04-21T04:15:43;99130.63;;;8.27;77.42
56689;BME280;42565;53.342;-1.534;2023-04-21T04:18:10;99116.03;;;8.81;75.80
56689;BME280;42565;53.342;-1.534;2023-04-21T04:20:37;99112.21;;;8.73;76.20
56689;BME280;42565;53.342;-1.534;2023-04-21T04:23:05;99106.30;;;8.34;76.84
56689;BME280;42565;53.342;-1.534;2023-04-21T04:25:32;99096.51;;;8.23;78.19
56689;BME280;42565;53.342;-1.534;2023-04-21T04:27:59;99081.41;;;8.50;77.01
56689;BME280;42565;53.342;-1.534;2023-04-21T04:30:26;99076.65;;;8.04;77.97
56689;BME280;42565;53.342;-1.534;2023-04-21T04:32:53;99073.96;;;8.00;79.61
56689;BME280;42565;53.342;-1.534;2023-04-21T04:35:21;99074.08;;;8.02;78.98
56689;BME280;42565;53.342;-1.534;2023-04-21T04:37:48;99065.28;;;8.58;76.53
56689;BME280;42565;53.342;-1.534;2023-04-21T04:40:16;99059.03;;;8.92;76.14
56689;BME280;42565;53.342;-1.534;2023-04-21T04:42:42;99053.58;;;9.10;75.34
56689;BME280;42565;53.342;-1.534;2023-04-21T04:45:09;99052.60;;;8.34;77.44
56689;BME280;42565;53.342;-1.534;2023-04-21T04:47:36;99040.28;;;7.84;78.71
56689;BME280;42565;53.342;-1.534;2023-04-21T04:50:03;99041.56;;;7.74;80.81
56689;BME280;42565;53.342;-1.534;2023-04-21T04:52:30;99048.91;;;7.93;80.63
56689;BME280;42565;53.342;-1.534;2023-04-21T04:54:57;99045.43;;;7.71;81.52
56689;BME280;42565;53.342;-1.534;2023-04-21T04:57:24;99048.75;;;7.53;82.95
56689;BME280;42565;53.342;-1.534;2023-04-21T04:59:53;99048.87;;;7.95;82.29
56689;BME280;42565;53.342;-1.534;2023-04-21T05:02:21;99043.30;;;7.32;82.09
56689;BME280;42565;53.342;-1.534;2023-04-21T05:04:48;99042.69;;;7.53;82.63
56689;BME280;42565;53.342;-1.534;2023-04-21T05:07:15;99044.56;;;7.78;82.40
56689;BME280;42565;53.342;-1.534;2023-04-21T05:09:42;99033.93;;;7.96;81.39
56689;BME280;42565;53.342;-1.534;2023-04-21T05:12:09;99032.19;;;8.45;80.28
56689;BME280;42565;53.342;-1.534;2023-04-21T05:14:36;99030.11;;;7.75;81.47
56689;BME280;42565;53.342;-1.534;2023-04-21T05:17:04;99023.95;;;8.21;80.82
56689;BME280;42565;53.342;-1.534;2023-04-21T05:19:32;99029.32;;;7.98;81.44
56689;BME280;42565;53.342;-1.534;2023-04-21T05:22:00;99023.46;;;7.59;82.48
56689;BME280;42565;53.342;-1.534;2023-04-21T05:24:27;99031.59;;;7.56;81.53
56689;BME280;42565;53.342;-1.534;2023-04-21T05:26:54;99027.28;;;7.92;82.08
56689;BME280;42565;53.342;-1.534;2023-04-21T05:29:21;99023.37;;;8.01;80.96
56689;BME280;42565;53.342;-1.534;2023-04-21T05:31:48;99023.53;;;8.27;80.31
56689;BME280;42565;53.342;-1.534;2023-04-21T05:34:16;99030.60;;;8.75;79.30
56689;BME280;42565;53.342;-1.534;2023-04-21T05:36:43;99026.22;;;8.35;79.59
56689;BME280;42565;53.342;-1.534;2023-04-21T05:39:10;99023.52;;;8.36;80.15
56689;BME280;42565;53.342;-1.534;2023-04-21T05:41:37;99024.80;;;8.90;77.92
56689;BME280;42565;53.342;-1.534;2023-04-21T05:44:04;99025.96;;;8.86;78.31
56689;BME280;42565;53.342;-1.534;2023-04-21T05:46:31;99014.60;;;8.85;77.19
56689;BME280;42565;53.342;-1.534;2023-04-21T05:48:58;99015.94;;;9.07;77.29
56689;BME280;42565;53.342;-1.534;2023-04-21T05:51:24;99014.51;;;8.49;78.26
56689;BME280;42565;53.342;-1.534;2023-04-21T05:53:51;99012.29;;;8.81;77.23
56689;BME280;42565;53.342;-1.534;2023-04-21T05:56:19;99012.39;;;8.22;79.54
56689;BME280;42565;53.342;-1.534;2023-04-21T05:58:46;99008.63;;;8.15;79.48
56689;BME280;42565;53.342;-1.534;2023-04-21T06:01:13;98998.88;;;8.59;78.45
56689;BME280;42565;53.342;-1.534;2023-04-21T06:03:40;99004.20;;;8.77;79.05
56689;BME280;42565;53.342;-1.534;2023-04-21T06:06:07;99004.60;;;7.76;82.95
56689;BME280;42565;53.342;-1.534;2023-04-21T06:08:34;98998.18;;;7.50;84.23
56689;BME280;42565;53.342;-1.534;2023-04-21T06:11:01;98997.83;;;7.27;85.03
56689;BME280;42565;53.342;-1.534;2023-04-21T06:13:28;98993.36;;;7.64;83.52
56689;BME280;42565;53.342;-1.534;2023-04-21T06:15:55;98987.91;;;7.32;84.87
56689;BME280;42565;53.342;-1.534;2023-04-21T06:18:22;98975.88;;;6.95;86.61
56689;BME280;42565;53.342;-1.534;2023-04-21T06:20:50;98971.55;;;7.83;83.42
56689;BME280;42565;53.342;-1.534;2023-04-21T06:23:18;98965.72;;;8.14;82.20
56689;BME280;42565;53.342;-1.534;2023-04-21T06:25:45;98969.42;;;8.53;81.33
56689;BME280;42565;53.342;-1.534;2023-04-21T06:28:12;98963.93;;;8.54;81.19
56689;BME280;42565;53.342;-1.534;2023-04-21T06:30:39;98956.17;;;8.18;81.84
56689;BME280;42565;53.342;-1.534;2023-04-21T06:33:06;98950.28;;;8.70;80.07
56689;BME280;42565;53.342;-1.534;2023-04-21T06:35:33;98948.43;;;8.12;80.99
56689;BME280;42565;53.342;-1.534;2023-04-21T06:38:00;98942.10;;;8.62;80.32
56689;BME280;42565;53.342;-1.534;2023-04-21T06:40:27;98941.45;;;8.02;81.33
56689;BME280;42565;53.342;-1.534;2023-04-21T06:42:54;98941.37;;;8.28;81.52
56689;BME280;42565;53.342;-1.534;2023-04-21T06:45:21;98927.71;;;8.44;79.80
56689;BME280;42565;53.342;-1.534;2023-04-21T06:47:48;98926.10;;;7.90;81.28
56689;BME280;42565;53.342;-1.534;2023-04-21T06:50:15;98924.53;;;8.47;80.64
56689;BME280;42565;53.342;-1.534;2023-04-21T06:52:42;98922.16;;;8.29;79.95
56689;BME280;42565;53.342;-1.534;2023-04-21T06:55:09;98922.54;;;7.61;82.66
56689;BME280;42565;53.342;-1.534;2023-04-21T06:57:37;98915.07;;;8.24;81.02
56689;BME280;42565;53.342;-1.534;2023-04-21T07:00:05;98911.67;;;8.36;80.45
56689;BME280;42565;53.342;-1.534;2023-04-21T07:02:32;98920.56;;;8.31;80.80
56689;BME280;42565;53.342;-1.534;2023-04-21T07:04:59;98910.30;;;8.36;80.08
56689;BME280;42565;53.342;-1.534;2023-04-21T07:07:26;98913.33;;;8.34;79.19
56689;BME280;42565;53.342;-1.534;2023-04-21T07:09:53;98917.11;;;7.66;81.67
56689;BME280;42565;53.342;-1.534;2023-04-21T07:12:21;98912.65;;;7.34;84.03
56689;BME280;42565;53.342;-1.534;2023-04-21T07:14:48;98916.96;;;7.24;83.99
56689;BME280;42565;53.342;-1.534;2023-04-21T07:17:15;98910.08;;;7.55;84.07
56689;BME280;42565;53.342;-1.534;2023-04-21T07:19:42;98918.77;;;7.69;83.55
56689;BME280;42565;53.342;-1.534;2023-04-21T07:22:10;98908.10;;;8.27;81.91
56689;BME280;42565;53.342;-1.534;2023-04-21T07:24:36;98903.76;;;7.78;83.50
56689;BME280;42565;53.342;-1.534;2023-04-21T07:27:03;98902.48;;;7.77;84.12
56689;BME280;42565;53.342;-1.534;2023-04-21T07:29:30;98883.49;;;7.80;81.59
56689;BME280;42565;53.342;-1.534;2023-04-21T07:31:57;98891.06;;;8.05;82.27
56689;BME280;42565;53.342;-1.534;2023-04-21T07:34:25;98868.00;;;8.10;81.30
56689;BME280;42565;53.342;-1.534;2023-04-21T07:36:54;98892.72;;;7.48;84.29
56689;BME280;42565;53.342;-1.534;2023-04-21T07:39:21;98862.22;;;6.93;84.07
56689;BME280;42565;53.342;-1.534;2023-04-21T07:41:48;98875.30;;;7.38;85.29
56689;BME280;42565;53.342;-1.534;2023-04-21T07:44:15;98864.12;;;8.16;81.63
56689;BME280;42565;53.342;-1.534;2023-04-21T07:46:42;98859.70;;;7.27;85.73
56689;BME280;42565;53.342;-1.534;2023-04-21T07:49:09;98861.15;;;7.11;86.71
56689;BME280;42565;53.342;-1.534;2023-04-21T07:51:37;98867.48;;;7.61;83.84
56689;BME280;42565;53.342;-1.534;2023-04-21T07:54:04;98878.45;;;8.14;83.66
56689;BME280;42565;53.342;-1.534;2023-04-21T07:56:31;98863.45;;;7.47;84.65
56689;BME280;42565;53.342;-1.534;2023-04-21T07:58:58;98884.99;;;7.98;82.51
56689;BME280;42565;53.342;-1.534;2023-04-21T08:01:25;98865.47;;;8.16;80.78
56689;BME280;42565;53.342;-1.534;2023-04-21T08:03:53;98864.64;;;8.34;80.48
56689;BME280;42565;53.342;-1.534;2023-04-21T08:06:20;98885.47;;;8.45;79.91
56689;BME280;42565;53.342;-1.534;2023-04-21T08:08:48;98881.06;;;8.45;80.60
56689;BME280;42565;53.342;-1.534;2023-04-21T08:11:15;98877.76;;;7.70;82.87
56689;BME280;42565;53.342;-1.534;2023-04-21T08:13:42;98863.49;;;8.13;81.63
56689;BME280;42565;53.342;-1.534;2023-04-21T08:16:09;98879.05;;;8.37;81.81
56689;BME280;42565;53.342;-1.534;2023-04-21T08:18:36;98877.72;;;8.51;80.46
56689;BME280;42565;53.342;-1.534;2023-04-21T08:21:03;98864.06;;;8.79;79.17
56689;BME280;42565;53.342;-1.534;2023-04-21T08:23:30;98871.87;;;8.19;81.31
56689;BME280;42565;53.342;-1.534;2023-04-21T08:25:57;98881.14;;;8.45;80.69
56689;BME280;42565;53.342;-1.534;2023-04-21T08:28:24;98872.87;;;8.54;79.18
56689;BME280;42565;53.342;-1.534;2023-04-21T08:30:52;98866.04;;;8.96;79.16
56689;BME280;42565;53.342;-1.534;2023-04-21T08:33:19;98872.15;;;8.56;79.41
56689;BME280;42565;53.342;-1.534;2023-04-21T08:35:46;98865.58;;;8.46;81.04
56689;BME280;42565;53.342;-1.534;2023-04-21T08:38:13;98859.00;;;8.89;79.88
56689;BME280;42565;53.342;-1.534;2023-04-21T08:40:40;98859.44;;;8.68;80.66
56689;BME280;42565;53.342;-1.534;2023-04-21T08:43:07;98867.29;;;8.90;79.48
56689;BME280;42565;53.342;-1.534;2023-04-21T08:45:35;98866.25;;;9.03;79.16
56689;BME280;42565;53.342;-1.534;2023-04-21T08:48:02;98861.05;;;9.02;78.03
56689;BME280;42565;53.342;-1.534;2023-04-21T08:50:30;98862.68;;;8.96;77.75
56689;BME280;42565;53.342;-1.534;2023-04-21T08:52:58;98865.44;;;9.73;76.41
56689;BME280;42565;53.342;-1.534;2023-04-21T08:55:30;98864.23;;;9.09;76.72
56689;BME280;42565;53.342;-1.534;2023-04-21T08:57:58;98870.33;;;9.49;77.17
56689;BME280;42565;53.342;-1.534;2023-04-21T09:00:25;98867.58;;;8.59;79.05
56689;BME280;42565;53.342;-1.534;2023-04-21T09:02:54;98870.94;;;9.06;78.94
56689;BME280;42565;53.342;-1.534;2023-04-21T09:05:23;98870.14;;;9.06;77.47
56689;BME280;42565;53.342;-1.534;2023-04-21T09:07:51;98872.57;;;9.25;78.02
56689;BME280;42565;53.342;-1.534;2023-04-21T09:10:22;98865.92;;;8.93;81.00
56689;BME280;42565;53.342;-1.534;2023-04-21T09:12:50;98862.38;;;9.40;79.22
56689;BME280;42565;53.342;-1.534;2023-04-21T09:15:17;98861.97;;;9.74;78.64
56689;BME280;42565;53.342;-1.534;2023-04-21T09:17:46;98857.38;;;9.35;78.79
56689;BME280;42565;53.342;-1.534;2023-04-21T09:20:19;98856.74;;;9.80;77.46
56689;BME280;42565;53.342;-1.534;2023-04-21T09:22:47;98854.49;;;9.16;80.02
56689;BME280;42565;53.342;-1.534;2023-04-21T09:25:15;98848.25;;;9.53;78.91
56689;BME280;42565;53.342;-1.534;2023-04-21T09:27:42;98847.28;;;9.46;79.50
56689;BME280;42565;53.342;-1.534;2023-04-21T09:30:10;98845.62;;;9.30;78.49
56689;BME280;42565;53.342;-1.534;2023-04-21T09:32:38;98842.29;;;9.37;78.98
56689;BME280;42565;53.342;-1.534;2023-04-21T09:35:08;98843.15;;;9.00;80.45
56689;BME280;42565;53.342;-1.534;2023-04-21T09:37:37;98856.15;;;8.92;81.77
56689;BME280;42565;53.342;-1.534;2023-04-21T09:40:05;98851.34;;;7.82;87.82
56689;BME280;42565;53.342;-1.534;2023-04-21T09:42:33;98847.85;;;8.18;85.74
56689;BME280;42565;53.342;-1.534;2023-04-21T09:45:00;98851.89;;;8.11;86.92
56689;BME280;42565;53.342;-1.534;2023-04-21T09:47:30;98848.14;;;8.72;83.71
56689;BME280;42565;53.342;-1.534;2023-04-21T09:49:59;98855.26;;;8.61;84.76
56689;BME280;42565;53.342;-1.534;2023-04-21T09:52:28;98867.69;;;8.40;86.25
56689;BME280;42565;53.342;-1.534;2023-04-21T09:55:00;98872.32;;;8.69;85.71
56689;BME280;42565;53.342;-1.534;2023-04-21T09:57:30;98868.72;;;8.46;86.40
56689;BME280;42565;53.342;-1.534;2023-04-21T10:00:00;98869.14;;;8.24;88.18
56689;BME280;42565;53.342;-1.534;2023-04-21T10:02:30;98866.76;;;8.66;85.83
56689;BME280;42565;53.342;-1.534;2023-04-21T10:04:57;98859.96;;;8.91;86.09
56689;BME280;42565;53.342;-1.534;2023-04-21T10:07:24;98866.95;;;8.62;85.90
56689;BME280;42565;53.342;-1.534;2023-04-21T10:09:53;98868.96;;;9.01;85.05
56689;BME280;42565;53.342;-1.534;2023-04-21T10:12:23;98869.14;;;7.80;87.69
56689;BME280;42565;53.342;-1.534;2023-04-21T10:14:51;98866.90;;;7.74;91.40
56689;BME280;42565;53.342;-1.534;2023-04-21T10:17:22;98869.45;;;7.67;92.26
56689;BME280;42565;53.342;-1.534;2023-04-21T10:19:51;98875.38;;;7.70;93.28
56689;BME280;42565;53.342;-1.534;2023-04-21T10:22:29;98869.15;;;7.84;92.26
56689;BME280;42565;53.342;-1.534;2023-04-21T10:24:58;98871.19;;;6.78;96.65
56689;BME280;42565;53.342;-1.534;2023-04-21T10:27:32;98875.33;;;7.64;94.37
56689;BME280;42565;53.342;-1.534;2023-04-21T10:30:00;98871.17;;;7.73;94.00
56689;BME280;42565;53.342;-1.534;2023-04-21T10:32:38;98868.16;;;8.70;90.15
56689;BME280;42565;53.342;-1.534;2023-04-21T10:35:08;98862.67;;;8.38;89.88
56689;BME280;42565;53.342;-1.534;2023-04-21T10:37:35;98861.88;;;7.45;93.48
56689;BME280;42565;53.342;-1.534;2023-04-21T10:40:03;98864.36;;;7.75;92.88
56689;BME280;42565;53.342;-1.534;2023-04-21T10:42:33;98860.67;;;8.26;91.21
56689;BME280;42565;53.342;-1.534;2023-04-21T10:45:07;98858.54;;;8.73;88.70
56689;BME280;42565;53.342;-1.534;2023-04-21T10:47:37;98851.64;;;8.45;89.00
56689;BME280;42565;53.342;-1.534;2023-04-21T10:50:17;98845.22;;;9.19;87.05
56689;BME280;42565;53.342;-1.534;2023-04-21T10:52:51;98841.07;;;9.75;84.93
56689;BME280;42565;53.342;-1.534;2023-04-21T10:55:20;98842.50;;;9.67;85.58
56689;BME280;42565;53.342;-1.534;2023-04-21T10:57:48;98847.08;;;8.91;87.52
56689;BME280;42565;53.342;-1.534;2023-04-21T11:00:18;98852.33;;;8.44;90.66
56689;BME280;42565;53.342;-1.534;2023-04-21T11:02:53;98850.70;;;9.09;88.10
56689;BME280;42565;53.342;-1.534;2023-04-21T11:05:27;98843.35;;;8.67;87.31
56689;BME280;42565;53.342;-1.534;2023-04-21T11:08:04;98836.22;;;8.94;86.90
56689;BME280;42565;53.342;-1.534;2023-04-21T11:10:50;98833.46;;;9.38;86.06
56689;BME280;42565;53.342;-1.534;2023-04-21T11:13:20;98834.92;;;8.86;86.54
56689;BME280;42565;53.342;-1.534;2023-04-21T11:16:05;98832.85;;;9.47;86.41
56689;BME280;42565;53.342;-1.534;2023-04-21T11:18:40;98837.73;;;9.06;87.71
56689;BME280;42565;53.342;-1.534;2023-04-21T11:21:09;98833.70;;;8.37;91.05
56689;BME280;42565;53.342;-1.534;2023-04-21T11:23:39;98828.49;;;8.85;87.50
56689;BME280;42565;53.342;-1.534;2023-04-21T11:26:07;98827.87;;;8.76;88.26
56689;BME280;42565;53.342;-1.534;2023-04-21T11:28:34;98823.74;;;8.82;87.80
56689;BME280;42565;53.342;-1.534;2023-04-21T11:31:01;98818.11;;;9.33;85.65
56689;BME280;42565;53.342;-1.534;2023-04-21T11:33:30;98819.10;;;9.77;84.94
56689;BME280;42565;53.342;-1.534;2023-04-21T11:36:03;98818.63;;;9.31;85.84
56689;BME280;42565;53.342;-1.534;2023-04-21T11:38:37;98822.02;;;9.50;84.75
56689;BME280;42565;53.342;-1.534;2023-04-21T11:41:04;98819.92;;;9.03;86.50
56689;BME280;42565;53.342;-1.534;2023-04-21T11:43:32;98808.26;;;8.90;86.84
56689;BME280;42565;53.342;-1.534;2023-04-21T11:46:31;98815.50;;;8.50;90.05
56689;BME280;42565;53.342;-1.534;2023-04-21T11:49:00;98814.56;;;8.58;87.38
56689;BME280;42565;53.342;-1.534;2023-04-21T11:51:32;98814.33;;;8.08;90.17
56689;BME280;42565;53.342;-1.534;2023-04-21T11:54:00;98812.03;;;8.67;88.63
56689;BME280;42565;53.342;-1.534;2023-04-21T11:56:27;98807.14;;;8.64;87.25
56689;BME280;42565;53.342;-1.534;2023-04-21T11:58:54;98813.80;;;9.22;85.99
56689;BME280;42565;53.342;-1.534;2023-04-21T12:01:22;98812.95;;;8.69;86.60
56689;BME280;42565;53.342;-1.534;2023-04-21T12:03:51;98814.38;;;8.82;87.00
56689;BME280;42565;53.342;-1.534;2023-04-21T12:06:21;98808.17;;;8.96;87.07
56689;BME280;42565;53.342;-1.534;2023-04-21T12:08:54;98818.26;;;8.67;88.92
56689;BME280;42565;53.342;-1.534;2023-04-21T12:11:22;98814.36;;;8.67;89.31
56689;BME280;42565;53.342;-1.534;2023-04-21T12:13:49;98814.28;;;8.53;89.01
56689;BME280;42565;53.342;-1.534;2023-04-21T12:16:17;98818.64;;;9.12;87.17
56689;BME280;42565;53.342;-1.534;2023-04-21T12:18:44;98826.79;;;7.98;94.07
56689;BME280;42565;53.342;-1.534;2023-04-21T12:21:14;98816.66;;;7.90;94.17
56689;BME280;42565;53.342;-1.534;2023-04-21T12:23:40;98819.93;;;8.56;92.02
56689;BME280;42565;53.342;-1.534;2023-04-21T12:26:08;98821.11;;;8.38;91.56
56689;BME280;42565;53.342;-1.534;2023-04-21T12:28:35;98819.88;;;9.30;87.48
56689;BME280;42565;53.342;-1.534;2023-04-21T12:31:03;98824.34;;;8.28;90.34
56689;BME280;42565;53.342;-1.534;2023-04-21T12:33:30;98824.30;;;8.38;90.16
56689;BME280;42565;53.342;-1.534;2023-04-21T12:35:57;98820.22;;;8.84;88.82
56689;BME280;42565;53.342;-1.534;2023-04-21T12:38:24;98819.64;;;9.42;86.38
56689;BME280;42565;53.342;-1.534;2023-04-21T12:40:52;98822.54;;;8.85;87.99
56689;BME280;42565;53.342;-1.534;2023-04-21T12:43:19;98828.12;;;8.91;87.93
56689;BME280;42565;53.342;-1.534;2023-04-21T12:45:47;98822.73;;;8.45;89.55
56689;BME280;42565;53.342;-1.534;2023-04-21T12:48:15;98821.06;;;8.78;88.53
56689;BME280;42565;53.342;-1.534;2023-04-21T12:50:41;98817.16;;;8.90;88.41
56689;BME280;42565;53.342;-1.534;2023-04-21T12:53:09;98819.87;;;9.21;87.39
56689;BME280;42565;53.342;-1.534;2023-04-21T12:55:36;98818.43;;;9.56;86.58
56689;BME280;42565;53.342;-1.534;2023-04-21T12:58:03;98816.49;;;9.59;83.97
56689;BME280;42565;53.342;-1.534;2023-04-21T13:00:30;98814.76;;;9.39;83.40
56689;BME280;42565;53.342;-1.534;2023-04-21T13:02:57;98813.49;;;9.03;86.46